Time;durP1;ratioP1;P1;durP2;ratioP2;P2;SDS_P1;SDS_P2;PMS_P1;PMS_P2;Temp;Humidity;BMP_temperature;BMP_pressure;BME280_temperature;BME280_humidity;BME280_pressure;Samples;Min_cycle;Max_cycle;Signal;HPM_P1;HPM_P2
2024/02/10 00:00:22;;;;;;;124.90;51.20;;;;;;;4.77;100.00;98267.33;213546;1289;161803;-84
2024/02/10 00:05:23;;;;;;;123.10;46.50;;;;;;;4.79;100.00;98261.25;213596;1291;96643;-84
2024/02/10 00:10:25;;;;;;;123.10;47.40;;;;;;;4.80;100.00;98256.04;212778;1290;140654;-85
2024/02/10 00:15:27;;;;;;;122.10;46.70;;;;;;;4.81;100.00;98256.58;212887;1295;139123;-84
2024/02/10 00:20:28;;;;;;;122.30;50.50;;;;;;;4.82;100.00;98255.49;212441;1294;140350;-84
2024/02/10 00:25:29;;;;;;;124.00;48.20;;;;;;;4.84;100.00;98253.85;213183;1289;139497;-84
2024/02/10 00:30:29;;;;;;;117.10;47.50;;;;;;;4.86;100.00;98259.84;212765;1293;140009;-84
2024/02/10 00:35:30;;;;;;;115.90;48.30;;;;;;;4.89;100.00;98260.63;212905;1290;96716;-83
2024/02/10 00:40:31;;;;;;;123.70;49.00;;;;;;;4.91;100.00;98262.09;212420;1290;140957;-84
2024/02/10 00:45:31;;;;;;;114.30;48.40;;;;;;;4.94;100.00;98263.98;212810;1290;138897;-84
2024/02/10 00:50:32;;;;;;;111.20;45.80;;;;;;;4.98;100.00;98264.89;212220;1290;140022;-84
2024/02/10 00:55:32;;;;;;;109.60;45.60;;;;;;;5.00;100.00;98267.62;213029;1289;139500;-84
2024/02/10 01:00:34;;;;;;;107.10;44.50;;;;;;;5.04;100.00;98263.95;212926;1290;141389;-85
2024/02/10 01:05:37;;;;;;;111.40;47.70;;;;;;;5.08;100.00;98263.63;212980;1290;96688;-84
2024/02/10 01:10:38;;;;;;;116.50;48.90;;;;;;;5.10;100.00;98268.70;212364;1289;139898;-86
2024/02/10 01:15:38;;;;;;;126.00;50.50;;;;;;;5.13;100.00;98263.00;213259;1290;140244;-85
2024/02/10 01:20:39;;;;;;;116.20;50.90;;;;;;;5.15;100.00;98262.14;212713;1291;139940;-84
2024/02/10 01:25:41;;;;;;;122.30;47.30;;;;;;;5.19;100.00;98265.02;213459;1291;142415;-85
2024/02/10 01:30:41;;;;;;;107.20;46.90;;;;;;;5.20;100.00;98264.47;213192;1293;139974;-85
2024/02/10 01:35:41;;;;;;;120.10;48.20;;;;;;;5.22;100.00;98267.02;214002;1290;96690;-85
2024/02/10 01:40:42;;;;;;;120.30;47.20;;;;;;;5.23;100.00;98266.48;213455;1294;139702;-85
2024/02/10 01:45:43;;;;;;;114.70;47.90;;;;;;;5.25;100.00;98265.39;213977;1291;139428;-85
2024/02/10 01:50:44;;;;;;;107.20;47.60;;;;;;;5.27;100.00;98269.81;213551;1293;139952;-84
2024/02/10 01:55:44;;;;;;;111.80;47.30;;;;;;;5.28;100.00;98268.27;214068;1290;139933;-84
2024/02/10 02:00:45;;;;;;;145.60;59.90;;;;;;;5.30;100.00;98268.56;213498;1292;140226;-84
2024/02/10 02:05:45;;;;;;;127.90;52.40;;;;;;;5.33;100.00;98265.20;214094;1290;97518;-84
2024/02/10 02:10:46;;;;;;;109.60;50.50;;;;;;;5.37;100.00;98266.91;213125;1294;140485;-83
2024/02/10 02:15:47;;;;;;;116.90;50.90;;;;;;;5.40;100.00;98267.05;213104;1294;139132;-83
2024/02/10 02:20:48;;;;;;;110.70;48.30;;;;;;;5.42;100.00;98264.55;212850;1292;139884;-84
2024/02/10 02:25:48;;;;;;;117.60;49.00;;;;;;;5.45;100.00;98271.56;213117;1293;139583;-84
2024/02/10 02:30:49;;;;;;;132.80;50.90;;;;;;;5.46;100.00;98271.55;212588;1294;140197;-85
2024/02/10 02:35:50;;;;;;;121.90;51.00;;;;;;;5.48;100.00;98281.20;213543;1294;96831;-85
2024/02/10 02:40:50;;;;;;;131.50;53.60;;;;;;;5.50;100.00;98284.46;212943;1289;140564;-84
2024/02/10 02:45:51;;;;;;;136.40;52.50;;;;;;;5.52;100.00;98282.98;213335;1291;139367;-84
2024/02/10 02:50:51;;;;;;;202.10;72.10;;;;;;;5.54;100.00;98275.58;212962;1291;140145;-84
2024/02/10 02:55:52;;;;;;;144.20;58.70;;;;;;;5.55;100.00;98272.54;213037;1291;139860;-84
2024/02/10 03:00:53;;;;;;;165.20;62.10;;;;;;;5.57;100.00;98276.65;212829;1292;139747;-84
2024/02/10 03:05:53;;;;;;;141.80;55.70;;;;;;;5.58;100.00;98275.96;213692;1292;96618;-86
2024/02/10 03:10:54;;;;;;;127.50;48.50;;;;;;;5.60;100.00;98275.02;212381;1293;139641;-84
2024/02/10 03:15:54;;;;;;;121.00;48.70;;;;;;;5.62;100.00;98277.97;213024;1293;138659;-85
2024/02/10 03:20:57;;;;;;;110.70;46.90;;;;;;;5.63;100.00;98278.66;212322;1291;140038;-84
2024/02/10 03:26:01;;;;;;;115.20;46.40;;;;;;;5.65;100.00;98280.14;212825;1290;139369;-85
2024/02/10 03:31:02;;;;;;;110.00;45.90;;;;;;;5.67;100.00;98284.65;212661;1295;140155;-84
2024/02/10 03:36:05;;;;;;;130.30;51.80;;;;;;;5.70;100.00;98288.23;213047;1294;97371;-85
2024/02/10 03:41:10;;;;;;;128.10;50.70;;;;;;;5.75;100.00;98282.05;212504;1292;153045;-84
2024/02/10 03:46:14;;;;;;;111.70;47.80;;;;;;;5.78;100.00;98278.44;212853;1291;138565;-85
2024/02/10 03:51:15;;;;;;;110.80;48.80;;;;;;;5.82;100.00;98283.98;212594;1294;140714;-85
2024/02/10 03:56:15;;;;;;;134.30;52.50;;;;;;;5.85;100.00;98289.35;213308;1289;138924;-84
2024/02/10 04:01:16;;;;;;;103.70;45.70;;;;;;;5.87;100.00;98290.52;212789;1291;140461;-84
2024/02/10 04:06:16;;;;;;;114.10;48.30;;;;;;;5.89;100.00;98283.57;213530;1289;96644;-84
2024/02/10 04:11:17;;;;;;;114.80;52.80;;;;;;;5.92;100.00;98285.50;212808;1293;140316;-85
2024/02/10 04:16:17;;;;;;;119.50;49.80;;;;;;;5.95;100.00;98290.02;213319;1293;139557;-85
2024/02/10 04:21:18;;;;;;;104.20;45.70;;;;;;;5.96;100.00;98289.48;213022;1294;140972;-85
2024/02/10 04:26:18;;;;;;;107.40;46.70;;;;;;;5.97;100.00;98284.45;213184;1292;138903;-85
2024/02/10 04:31:21;;;;;;;110.10;46.20;;;;;;;5.98;100.00;98278.91;212681;1294;140807;-85
2024/02/10 04:36:22;;;;;;;103.70;43.90;;;;;;;5.99;100.00;98278.29;213248;1291;96634;-85
2024/02/10 04:41:23;;;;;;;100.50;44.20;;;;;;;6.00;100.00;98278.21;212882;1294;139821;-84
2024/02/10 04:46:24;;;;;;;98.60;45.50;;;;;;;6.02;100.00;98278.66;213383;1294;138533;-86
2024/02/10 04:51:26;;;;;;;107.30;46.20;;;;;;;6.05;100.00;98277.64;212733;1291;140193;-85
2024/02/10 04:56:28;;;;;;;100.40;44.00;;;;;;;6.07;100.00;98279.98;212938;1289;138849;-85
2024/02/10 05:01:32;;;;;;;111.40;46.00;;;;;;;6.10;100.00;98275.73;212747;1292;140020;-84
2024/02/10 05:06:32;;;;;;;123.20;49.60;;;;;;;6.12;100.00;98275.25;213335;1294;139560;-84
2024/02/10 05:11:35;;;;;;;133.20;54.80;;;;;;;6.13;100.00;98272.28;212775;1293;139910;-83
2024/02/10 05:16:37;;;;;;;144.60;53.50;;;;;;;6.15;100.00;98273.37;212679;1296;138547;-84
2024/02/10 05:21:38;;;;;;;120.70;48.50;;;;;;;6.18;100.00;98271.87;212652;1290;140094;-84
2024/02/10 05:26:40;;;;;;;103.30;46.30;;;;;;;6.19;100.00;98272.95;213301;1294;138877;-84
2024/02/10 05:31:40;;;;;;;102.20;46.50;;;;;;;6.20;100.00;98271.39;212705;1292;139687;-84
2024/02/10 05:36:41;;;;;;;104.60;44.00;;;;;;;6.22;100.00;98272.08;213206;1294;139118;-84
2024/02/10 05:41:41;;;;;;;93.40;42.90;;;;;;;6.24;100.00;98267.77;212780;1292;140054;-84
2024/02/10 05:46:45;;;;;;;134.60;52.70;;;;;;;6.26;100.00;98263.92;213123;1294;138978;-83
2024/02/10 05:51:46;;;;;;;104.20;46.30;;;;;;;6.29;100.00;98261.03;212310;1290;140165;-84
2024/02/10 05:56:46;;;;;;;96.00;41.60;;;;;;;6.31;100.00;98263.52;212726;1290;138962;-83
2024/02/10 06:01:51;;;;;;;99.30;44.70;;;;;;;6.32;100.00;98264.59;212911;1290;140405;-84
2024/02/10 06:06:52;;;;;;;112.00;48.10;;;;;;;6.35;100.00;98262.46;213237;1294;139128;-83
2024/02/10 06:11:53;;;;;;;124.30;49.60;;;;;;;6.38;100.00;98260.57;212652;1293;140376;-84
2024/02/10 06:16:55;;;;;;;122.60;50.30;;;;;;;6.41;100.00;98260.33;213340;1294;138588;-84
2024/02/10 06:21:56;;;;;;;129.60;56.40;;;;;;;6.41;100.00;98260.00;212617;1293;139621;-84
2024/02/10 06:26:57;;;;;;;128.50;55.20;;;;;;;6.44;100.00;98258.58;212792;1290;139229;-84
2024/02/10 06:31:59;;;;;;;119.30;49.70;;;;;;;6.46;100.00;98262.85;212528;1292;140071;-84
2024/02/10 06:36:59;;;;;;;135.90;56.30;;;;;;;6.47;100.00;98258.16;213134;1294;138688;-84
2024/02/10 06:42:00;;;;;;;110.80;49.20;;;;;;;6.49;100.00;98268.29;212916;1293;139533;-83
2024/02/10 06:47:00;;;;;;;98.10;45.70;;;;;;;6.49;100.00;98270.17;213468;1292;138578;-83
2024/02/10 06:52:02;;;;;;;129.90;50.90;;;;;;;6.47;100.00;98268.77;212850;1294;140361;-82
2024/02/10 06:57:03;;;;;;;135.50;54.70;;;;;;;6.49;100.00;98275.01;213258;1294;139428;-83
2024/02/10 07:02:04;;;;;;;123.70;51.80;;;;;;;6.52;100.00;98273.97;212867;1292;139749;-83
2024/02/10 07:07:05;;;;;;;108.50;40.90;;;;;;;6.54;100.00;98276.85;213330;1289;138729;-83
2024/02/10 07:12:06;;;;;;;101.20;42.20;;;;;;;6.57;100.00;98279.40;212921;1294;140230;-82
2024/02/10 07:17:06;;;;;;;108.50;43.10;;;;;;;6.61;100.00;98283.66;213318;1294;139282;-83
2024/02/10 07:22:08;;;;;;;108.80;41.20;;;;;;;6.66;100.00;98285.04;212635;1294;140124;-83
2024/02/10 07:27:11;;;;;;;107.80;43.10;;;;;;;6.70;100.00;98286.10;212940;1295;138801;-83
2024/02/10 07:32:13;;;;;;;105.40;43.10;;;;;;;6.75;100.00;98290.59;212459;1295;139940;-83
2024/02/10 07:37:13;;;;;;;114.80;44.90;;;;;;;6.82;100.00;98297.70;213057;1293;138716;-84
2024/02/10 07:42:14;;;;;;;104.50;43.80;;;;;;;6.88;100.00;98301.10;212590;1291;139943;-84
2024/02/10 07:47:14;;;;;;;110.30;45.90;;;;;;;6.96;100.00;98303.14;212850;1295;138991;-83
2024/02/10 07:52:15;;;;;;;112.50;42.60;;;;;;;7.02;100.00;98309.80;212407;1292;142507;-83
2024/02/10 07:57:22;;;;;;;106.10;42.10;;;;;;;7.08;100.00;98313.89;212715;1295;138691;-83
2024/02/10 08:02:27;;;;;;;115.40;46.40;;;;;;;7.14;100.00;98308.98;212239;1295;140715;-83
2024/02/10 08:07:29;;;;;;;101.60;43.30;;;;;;;7.22;100.00;98317.35;212846;1296;138675;-83
2024/02/10 08:12:33;;;;;;;116.10;43.90;;;;;;;7.29;100.00;98320.19;212463;1290;140719;-85
2024/02/10 08:17:33;;;;;;;97.70;42.20;;;;;;;7.35;100.00;98328.31;213544;1290;106944;-82
2024/02/10 08:22:34;;;;;;;105.00;41.80;;;;;;;7.43;100.00;98343.02;212663;1294;142506;-80
2024/02/10 08:27:35;;;;;;;120.00;45.10;;;;;;;7.49;100.00;98353.13;212444;1293;423358;-81
2024/02/10 08:32:35;;;;;;;113.40;46.10;;;;;;;7.56;100.00;98361.11;212346;1293;140178;-81
2024/02/10 08:37:36;;;;;;;114.10;45.80;;;;;;;7.62;100.00;98369.95;212560;1295;138903;-81
2024/02/10 08:42:36;;;;;;;106.80;44.90;;;;;;;7.69;100.00;98373.89;212281;1292;139368;-81
2024/02/10 08:47:37;;;;;;;137.30;53.70;;;;;;;7.72;100.00;98374.08;212931;1292;96627;-82
2024/02/10 08:52:38;;;;;;;123.40;47.40;;;;;;;7.72;100.00;98367.98;212514;1295;139470;-82
2024/02/10 08:57:41;;;;;;;114.60;50.10;;;;;;;7.75;100.00;98364.34;212850;1297;138740;-82
2024/02/10 09:02:42;;;;;;;111.10;47.80;;;;;;;7.77;100.00;98363.63;212457;1294;139227;-82
2024/02/10 09:07:42;;;;;;;99.80;44.70;;;;;;;7.79;100.00;98358.44;213391;1295;138710;-82
2024/02/10 09:12:44;;;;;;;94.30;42.10;;;;;;;7.83;100.00;98351.83;212808;1292;140171;-81
2024/02/10 09:17:45;;;;;;;85.50;40.70;;;;;;;7.88;100.00;98348.48;213406;1290;107661;-82
2024/02/10 09:22:45;;;;;;;78.80;37.50;;;;;;;7.92;100.00;98361.02;212455;1293;140252;-81
2024/02/10 09:27:46;;;;;;;84.10;39.10;;;;;;;7.98;100.00;98365.58;213234;1289;139706;-81
2024/02/10 09:32:46;;;;;;;81.20;42.50;;;;;;;8.07;100.00;98365.23;212689;1293;140411;-82
2024/02/10 09:37:47;;;;;;;97.20;48.10;;;;;;;8.14;100.00;98369.05;212950;1302;138548;-81
2024/02/10 09:42:53;;;;;;;84.00;41.40;;;;;;;8.22;100.00;98370.39;213115;1293;141061;-83
2024/02/10 09:47:57;;;;;;;87.60;39.70;;;;;;;8.27;100.00;98361.09;213299;1295;107583;-83
2024/02/10 09:52:58;;;;;;;86.00;41.80;;;;;;;8.34;100.00;98362.16;212713;1295;140023;-83
2024/02/10 09:58:04;;;;;;;95.60;43.40;;;;;;;8.43;100.00;98371.29;213553;1291;138474;-84
2024/02/10 10:03:05;;;;;;;95.90;45.40;;;;;;;8.50;100.00;98379.34;212970;1292;140618;-84
2024/02/10 10:08:08;;;;;;;85.60;41.50;;;;;;;8.58;100.00;98385.81;215398;1295;140467;-84
2024/02/10 10:13:09;;;;;;;96.90;41.70;;;;;;;8.66;100.00;98385.15;217673;1291;139680;-82
2024/02/10 10:18:17;;;;;;;93.10;46.20;;;;;;;8.75;100.00;98390.98;218159;1290;104383;-83
2024/02/10 10:23:17;;;;;;;95.00;44.30;;;;;;;8.83;100.00;98393.13;217321;1291;139608;-83
2024/02/10 10:28:22;;;;;;;102.80;48.00;;;;;;;8.93;100.00;98398.00;218042;1289;139309;-83
2024/02/10 10:33:25;;;;;;;127.80;57.40;;;;;;;9.04;100.00;98392.83;215547;1292;139776;-82
2024/02/10 10:38:28;;;;;;;101.70;45.60;;;;;;;9.15;100.00;98399.85;212899;1293;138714;-84
2024/02/10 10:43:31;;;;;;;80.40;38.90;;;;;;;9.33;100.00;98403.96;212479;1295;139766;-83
2024/02/10 10:48:33;;;;;;;89.50;43.30;;;;;;;9.46;100.00;98413.77;212864;1294;138925;-84
2024/02/10 10:53:35;;;;;;;78.90;39.90;;;;;;;9.60;100.00;98420.14;212317;1292;139608;-83
2024/02/10 10:58:42;;;;;;;76.60;39.00;;;;;;;9.69;100.00;98418.80;213325;1291;138363;-84
2024/02/10 11:03:43;;;;;;;74.40;37.10;;;;;;;9.78;100.00;98416.81;212890;1294;139170;-84
2024/02/10 11:08:45;;;;;;;75.10;37.80;;;;;;;9.89;100.00;98419.21;213496;1289;138642;-84
2024/02/10 11:13:45;;;;;;;67.60;36.70;;;;;;;10.00;100.00;98410.84;212777;1292;140414;-84
2024/02/10 11:19:02;;;;;;;75.70;38.50;;;;;;;10.11;100.00;98411.67;213269;1294;138640;-83
2024/02/10 11:24:05;;;;;;;59.90;33.40;;;;;;;10.20;100.00;98413.07;212898;1294;139820;-83
2024/02/10 11:29:08;;;;;;;64.40;34.60;;;;;;;10.30;100.00;98411.85;213321;1291;138926;-84
2024/02/10 11:34:19;;;;;;;58.60;33.60;;;;;;;10.41;100.00;98412.73;212745;1292;140399;-84
2024/02/10 11:39:24;;;;;;;58.20;30.60;;;;;;;10.54;100.00;98409.14;213348;1291;138824;-84
2024/02/10 11:44:28;;;;;;;59.10;32.90;;;;;;;10.65;100.00;98410.02;212752;1294;140107;-84
2024/02/10 11:49:28;;;;;;;60.40;34.30;;;;;;;10.82;100.00;98409.17;213588;1294;139045;-83
2024/02/10 11:54:29;;;;;;;50.30;28.90;;;;;;;11.01;100.00;98408.80;213058;1288;139796;-84
2024/02/10 11:59:33;;;;;;;47.20;29.10;;;;;;;11.09;100.00;98397.55;213687;1289;97932;-84
2024/02/10 12:04:33;;;;;;;51.30;30.50;;;;;;;11.18;100.00;98395.58;213099;1288;139716;-84
2024/02/10 12:09:34;;;;;;;45.90;29.90;;;;;;;11.30;100.00;98395.16;213613;1295;138890;-84
2024/02/10 12:14:34;;;;;;;49.90;31.80;;;;;;;11.44;100.00;98389.77;212661;1293;139975;-85
2024/02/10 12:19:40;;;;;;;50.20;30.00;;;;;;;11.56;100.00;98386.15;213066;1292;139553;-85
2024/02/10 12:24:43;;;;;;;77.50;36.70;;;;;;;11.53;100.00;98384.58;212564;1293;140292;-85
2024/02/10 12:29:45;;;;;;;117.50;52.90;;;;;;;11.56;100.00;98381.60;213037;1290;96684;-86
2024/02/10 12:34:46;;;;;;;88.60;41.00;;;;;;;11.58;100.00;98382.48;212413;1289;139939;-86
2024/02/10 12:39:46;;;;;;;61.30;32.40;;;;;;;11.61;100.00;98378.41;212844;1289;138757;-86
2024/02/10 12:44:47;;;;;;;84.40;40.20;;;;;;;11.62;100.00;98374.20;212319;1290;139914;-86
2024/02/10 12:49:49;;;;;;;76.10;35.40;;;;;;;11.68;100.00;98380.23;212974;1288;138942;-85
2024/02/10 12:54:50;;;;;;;57.00;30.30;;;;;;;11.68;100.00;98377.76;212156;1293;139742;-86
2024/02/10 12:59:53;;;;;;;58.10;29.80;;;;;;;11.72;100.00;98376.55;212872;1290;97767;-85
2024/02/10 13:04:54;;;;;;;58.70;31.10;;;;;;;11.79;100.00;98371.50;212947;1290;139537;-87
2024/02/10 13:09:54;;;;;;;50.50;28.60;;;;;;;11.80;100.00;98368.38;213261;1288;138628;-87
2024/02/10 13:14:55;;;;;;;55.90;27.70;;;;;;;11.84;100.00;98363.70;213374;1288;151346;-86
2024/02/10 13:19:55;;;;;;;45.10;25.00;;;;;;;11.83;100.00;98364.46;213068;1292;141368;-85
2024/02/10 13:24:56;;;;;;;50.70;30.90;;;;;;;11.81;100.00;98356.09;213486;1288;139136;-86
2024/02/10 13:29:58;;;;;;;60.40;34.70;;;;;;;11.80;100.00;98353.60;213302;1288;139358;-86
2024/02/10 13:34:58;;;;;;;77.80;39.70;;;;;;;11.78;100.00;98349.40;213414;1288;153696;-85
2024/02/10 14:01:18;;;;;;;75.40;36.00;;;;;;;11.39;100.00;98343.39;212917;1290;140488;-87
2024/02/10 14:06:32;;;;;;;67.40;34.80;;;;;;;11.29;100.00;98345.45;212984;1293;97922;-86
2024/02/10 14:11:35;;;;;;;54.50;33.30;;;;;;;11.24;100.00;98354.77;212883;1292;141713;-85
2024/02/10 14:16:37;;;;;;;57.50;33.20;;;;;;;11.20;100.00;98354.50;213769;1291;138640;-86
2024/02/10 14:21:38;;;;;;;87.00;42.30;;;;;;;11.13;100.00;98356.86;212980;1288;140038;-86
2024/02/10 14:26:51;;;;;;;94.90;44.30;;;;;;;11.06;100.00;98355.30;213297;1290;139034;-87
2024/02/10 14:32:02;;;;;;;79.90;41.80;;;;;;;11.00;100.00;98356.70;212962;1294;141884;-88
2024/02/10 14:37:26;;;;;;;71.30;37.60;;;;;;;10.89;100.00;98354.91;213456;1288;138991;-87
2024/02/10 14:42:23;;;;;;;62.60;35.40;;;;;;;10.81;100.00;98367.31;213069;1288;140651;-86
2024/02/10 14:47:24;;;;;;;65.40;35.00;;;;;;;10.74;100.00;98367.77;213475;1292;139079;-87
2024/02/10 14:52:25;;;;;;;57.50;32.50;;;;;;;10.69;100.00;98363.40;212561;1290;140092;-88
2024/02/10 14:57:25;;;;;;;71.30;36.50;;;;;;;10.64;100.00;98361.71;212732;1290;139003;-86
2024/02/10 15:02:26;;;;;;;72.70;35.40;;;;;;;10.58;100.00;98368.83;212239;1296;139940;-85
2024/02/10 15:07:26;;;;;;;93.80;41.70;;;;;;;10.48;100.00;98373.38;212789;1290;139235;-88
2024/02/10 15:12:29;;;;;;;95.50;47.50;;;;;;;10.44;100.00;98377.23;212469;1290;140373;-85
2024/02/10 15:17:30;;;;;;;120.30;53.60;;;;;;;10.34;100.00;98379.58;213786;1290;139120;-88
2024/02/10 15:22:30;;;;;;;86.40;42.90;;;;;;;10.18;100.00;98381.23;212831;1288;140818;-88
2024/02/10 15:27:34;;;;;;;92.20;44.30;;;;;;;10.08;100.00;98387.41;213456;1294;139293;-90
2024/02/10 15:32:34;;;;;;;105.70;50.80;;;;;;;10.00;100.00;98392.54;213105;1288;141180;-88
2024/02/10 15:37:35;;;;;;;125.20;63.20;;;;;;;9.95;100.00;98392.56;213444;1292;139135;-88
2024/02/10 15:42:35;;;;;;;141.70;61.30;;;;;;;9.87;100.00;98391.30;212939;1289;140312;-89
2024/02/10 15:47:36;;;;;;;110.70;53.10;;;;;;;9.79;100.00;98391.07;213628;1289;96718;-89
2024/02/10 15:52:36;;;;;;;103.60;50.00;;;;;;;9.67;100.00;98395.21;212799;1288;139397;-89
2024/02/10 15:57:38;;;;;;;148.20;94.00;;;;;;;9.60;100.00;98394.95;213420;1292;138953;-90
2024/02/10 16:02:39;;;;;;;113.10;54.60;;;;;;;9.56;100.00;98395.48;212587;1293;140663;-90
2024/02/10 16:07:40;;;;;;;99.00;51.30;;;;;;;9.50;100.00;98398.95;212992;1293;139539;-89
2024/02/10 16:12:41;;;;;;;97.00;50.20;;;;;;;9.37;100.00;98409.45;212575;1289;140103;-86
2024/02/10 16:17:42;;;;;;;108.40;53.50;;;;;;;9.27;100.00;98405.31;213388;1289;97054;-88
2024/02/10 16:22:51;;;;;;;110.50;53.90;;;;;;;9.18;100.00;98416.98;212857;1288;139649;-89
2024/02/10 16:27:53;;;;;;;151.60;67.70;;;;;;;9.12;100.00;98422.48;213411;1288;138677;-86
2024/02/10 16:32:55;;;;;;;108.60;55.30;;;;;;;9.08;100.00;98426.77;212999;1288;139535;-87
2024/02/10 16:37:56;;;;;;;109.50;56.10;;;;;;;9.05;100.00;98427.52;213130;1288;138815;-86
2024/02/10 16:42:58;;;;;;;118.60;57.90;;;;;;;9.01;100.00;98432.75;212893;1288;139968;-87
2024/02/10 16:47:59;;;;;;;125.60;63.40;;;;;;;8.98;100.00;98442.76;213541;1288;96674;-86
2024/02/10 16:53:09;;;;;;;101.40;55.50;;;;;;;8.92;100.00;98450.59;213026;1288;141832;-86
2024/02/10 16:58:11;;;;;;;111.80;58.50;;;;;;;8.86;100.00;98452.73;213395;1292;138656;-87
2024/02/10 17:03:13;;;;;;;117.20;58.50;;;;;;;8.79;100.00;98456.51;212999;1288;140345;-87
2024/02/10 17:08:15;;;;;;;122.00;61.20;;;;;;;8.73;100.00;98456.35;213387;1288;138792;-87
2024/02/10 17:13:15;;;;;;;144.00;68.20;;;;;;;8.66;100.00;98459.96;212838;1288;139909;-87
2024/02/10 17:18:17;;;;;;;117.30;58.50;;;;;;;8.61;100.00;98465.98;213792;1288;97964;-88
2024/02/10 17:23:21;;;;;;;138.00;68.80;;;;;;;8.55;100.00;98466.85;213511;1292;140015;-87
2024/02/10 17:28:23;;;;;;;125.30;58.80;;;;;;;8.48;100.00;98474.30;213407;1288;139024;-87
2024/02/10 17:33:24;;;;;;;152.10;86.60;;;;;;;8.43;100.00;98475.73;212965;1292;139744;-87
2024/02/10 17:38:25;;;;;;;147.70;72.30;;;;;;;8.37;100.00;98476.94;213385;1288;138973;-87
2024/02/10 17:43:26;;;;;;;119.40;57.20;;;;;;;8.31;100.00;98473.55;213129;1288;139679;-87
2024/02/10 17:48:26;;;;;;;104.60;55.20;;;;;;;8.27;100.00;98464.75;213651;1292;97428;-89
2024/02/10 17:53:27;;;;;;;109.50;54.00;;;;;;;8.24;100.00;98467.20;213012;1292;139965;-88
2024/02/10 17:58:31;;;;;;;118.40;57.80;;;;;;;8.21;100.00;98466.23;213573;1294;138629;-88
2024/02/10 18:03:33;;;;;;;125.20;62.30;;;;;;;8.18;100.00;98460.13;212920;1292;139935;-87
2024/02/10 18:08:35;;;;;;;103.20;52.60;;;;;;;8.16;100.00;98455.13;213533;1292;138697;-88
2024/02/10 18:13:36;;;;;;;103.80;50.90;;;;;;;8.14;100.00;98450.00;212898;1289;139709;-87
2024/02/10 18:18:36;;;;;;;115.70;59.50;;;;;;;8.11;100.00;98448.46;213454;1289;138497;-88
2024/02/10 18:23:36;;;;;;;104.40;52.90;;;;;;;8.07;100.00;98447.17;213353;1293;139627;-88
2024/02/10 18:28:37;;;;;;;116.30;54.80;;;;;;;8.06;100.00;98456.18;212793;1290;138523;-86
2024/02/10 18:33:37;;;;;;;104.50;52.40;;;;;;;8.04;100.00;98453.08;212764;1288;140517;-87
2024/02/10 18:38:37;;;;;;;189.40;121.40;;;;;;;8.04;100.00;98451.44;213518;1292;138636;-88
2024/02/10 18:43:38;;;;;;;118.20;56.50;;;;;;;8.02;100.00;98442.69;213036;1288;140104;-88
2024/02/10 18:48:40;;;;;;;127.10;62.40;;;;;;;8.01;100.00;98447.70;213564;1292;139384;-88
2024/02/10 18:53:40;;;;;;;114.70;53.40;;;;;;;7.99;100.00;98450.70;212737;1288;140323;-87
2024/02/10 18:58:40;;;;;;;122.10;59.60;;;;;;;7.98;100.00;98452.75;213443;1292;138513;-88
2024/02/10 19:03:41;;;;;;;114.50;58.00;;;;;;;7.95;100.00;98451.67;213038;1292;139905;-88
2024/02/10 19:08:42;;;;;;;99.10;51.40;;;;;;;7.93;100.00;98449.73;213527;1292;138887;-88
2024/02/10 19:13:45;;;;;;;169.70;96.70;;;;;;;7.91;100.00;98458.21;212518;1289;139632;-87
2024/02/10 19:18:46;;;;;;;123.10;60.40;;;;;;;7.88;100.00;98467.01;212733;1290;138966;-87
2024/02/10 19:23:49;;;;;;;120.20;60.20;;;;;;;7.87;100.00;98474.69;213042;1292;140023;-87
2024/02/10 19:28:50;;;;;;;120.00;58.40;;;;;;;7.86;100.00;98475.33;213617;1288;139091;-86
2024/02/10 19:33:51;;;;;;;118.30;61.00;;;;;;;7.83;100.00;98477.94;213190;1291;139652;-88
2024/02/10 19:38:52;;;;;;;121.90;59.30;;;;;;;7.80;100.00;98481.86;213457;1288;138695;-88
2024/02/10 19:43:52;;;;;;;129.50;63.40;;;;;;;7.78;100.00;98481.89;212484;1289;139514;-85
2024/02/10 19:48:53;;;;;;;114.40;57.60;;;;;;;7.77;100.00;98482.98;212730;1289;139818;-87
2024/02/10 19:53:55;;;;;;;117.80;56.80;;;;;;;7.75;100.00;98487.55;213020;1289;140109;-88
2024/02/10 19:58:56;;;;;;;138.00;70.40;;;;;;;7.74;100.00;98481.63;213359;1293;138636;-88
2024/02/10 20:03:56;;;;;;;131.20;60.50;;;;;;;7.75;100.00;98483.11;212899;1288;139885;-86
2024/02/10 20:08:58;;;;;;;110.70;54.70;;;;;;;7.75;100.00;98479.19;213293;1288;138861;-86
2024/02/10 20:13:59;;;;;;;110.40;54.70;;;;;;;7.72;100.00;98478.65;212864;1288;140162;-88
2024/02/10 20:19:04;;;;;;;149.20;70.70;;;;;;;7.70;100.00;98479.78;213284;1288;138755;-88
2024/02/10 20:24:05;;;;;;;114.70;57.40;;;;;;;7.68;100.00;98477.91;213211;1292;139693;-87
2024/02/10 20:29:05;;;;;;;110.70;55.00;;;;;;;7.66;100.00;98472.05;213683;1293;152599;-89
2024/02/10 20:34:08;;;;;;;115.00;54.50;;;;;;;7.65;100.00;98468.33;212312;1290;139323;-87
2024/02/10 20:39:13;;;;;;;124.30;60.70;;;;;;;7.66;100.00;98468.86;212622;1289;139302;-88
2024/02/10 20:44:14;;;;;;;118.50;56.30;;;;;;;7.66;100.00;98461.44;212372;1292;139778;-89
2024/02/10 20:49:14;;;;;;;97.80;50.50;;;;;;;7.64;100.00;98457.14;213459;1289;139998;-87
2024/02/10 20:54:17;;;;;;;100.10;49.30;;;;;;;7.64;100.00;98454.56;212204;1290;139398;-89
2024/02/10 20:59:18;;;;;;;103.90;50.70;;;;;;;7.63;100.00;98452.46;212580;1290;138995;-88
2024/02/10 21:04:19;;;;;;;109.70;53.70;;;;;;;7.63;100.00;98447.23;212668;1292;140427;-87
2024/02/10 21:09:23;;;;;;;100.50;48.60;;;;;;;7.65;100.00;98450.65;213360;1288;138685;-89
2024/02/10 21:14:24;;;;;;;113.50;51.50;;;;;;;7.66;100.00;98448.38;212286;1294;139876;-87
2024/02/10 21:19:25;;;;;;;101.20;48.60;;;;;;;7.68;100.00;98447.49;212616;1291;138924;-89
2024/02/10 21:24:25;;;;;;;101.50;49.30;;;;;;;7.69;100.00;98437.32;212176;1290;139987;-88
2024/02/10 21:29:25;;;;;;;96.30;49.80;;;;;;;7.70;100.00;98430.27;214377;1292;139091;-88
2024/02/10 21:34:26;;;;;;;105.00;50.90;;;;;;;7.71;100.00;98426.10;212481;1293;139856;-88
2024/02/10 21:39:26;;;;;;;116.50;53.70;;;;;;;7.74;100.00;98431.08;213193;1288;139008;-88
2024/02/10 21:44:27;;;;;;;106.90;50.80;;;;;;;7.74;100.00;98421.38;212932;1292;139991;-87
2024/02/10 21:49:27;;;;;;;101.40;49.40;;;;;;;7.74;100.00;98420.85;213396;1288;138655;-88
2024/02/10 21:54:28;;;;;;;113.10;51.10;;;;;;;7.75;100.00;98417.40;212428;1289;140459;-88
2024/02/10 21:59:29;;;;;;;126.50;59.50;;;;;;;7.73;100.00;98413.88;212720;1290;138735;-87
2024/02/10 22:04:32;;;;;;;100.90;48.30;;;;;;;7.72;100.00;98416.48;212843;1289;140392;-86
2024/02/10 22:09:32;;;;;;;118.30;56.60;;;;;;;7.70;100.00;98419.16;213360;1294;138761;-87
2024/02/10 22:14:33;;;;;;;113.80;53.20;;;;;;;7.68;100.00;98419.02;212548;1288;139525;-88
2024/02/10 22:19:34;;;;;;;103.90;46.40;;;;;;;7.66;100.00;98417.39;213399;1288;138877;-88
2024/02/10 22:24:34;;;;;;;108.30;51.20;;;;;;;7.64;100.00;98417.10;212201;1290;139764;-88
2024/02/10 22:29:35;;;;;;;112.30;52.10;;;;;;;7.62;100.00;98415.71;213108;1290;97225;-87
2024/02/10 22:34:36;;;;;;;114.20;54.00;;;;;;;7.60;100.00;98411.34;212209;1290;139829;-88
2024/02/10 22:39:38;;;;;;;100.10;46.30;;;;;;;7.57;100.00;98413.18;213086;1294;138877;-88